Weather at Ceccano Heliport

Public forecast

Using degrees Celsius for public forecast. Weather courtesy of forecast.io.

Closest aviation weather report (METAR) to Ceccano Heliport

Report is more than 6 hours old.

Closest report is Frosinone Air Base, 7.5 nm (14.0 km) NNW.

2024/06/14 17:55 (retrieved 10 hours ago)

LIRH 141755Z 24003KT CAVOK 25/13 Q1017 RMK SKC MON LIB NC VIS MIN 9999 WIND THR16 28007KT BLU

Closest aviation forecast (TAF) to Ceccano Heliport

Forecast is more than 6 hours old.

Closest forecast is Foggia "Gino Lisa" Airport, 97.4 nm (180.3 km) E.

2024/06/14 18:00 Ammendment (retrieved 10 hours ago)

TAF AMD LIBF 142110Z 1418/1518 CNL